sensor_id;sensor_type;location;lat;lon;timestamp;P1;durP1;ratioP1;P2;durP2;ratioP2
33912;SDS011;20200;52.084;5.224;2022-08-11T00:00:20;6.7;;;3.3;;
33912;SDS011;20200;52.084;5.224;2022-08-11T00:02:23;7.7;;;3.4;;
33912;SDS011;20200;52.084;5.224;2022-08-11T00:04:14;5.8;;;3.2;;
33912;SDS011;20200;52.084;5.224;2022-08-11T00:06:03;6.2;;;3.5;;
33912;SDS011;20200;52.084;5.224;2022-08-11T00:07:50;6.8;;;3.5;;
33912;SDS011;20200;52.084;5.224;2022-08-11T00:11:34;6.9;;;3.2;;
33912;SDS011;20200;52.084;5.224;2022-08-11T00:13:30;6.8;;;3.1;;
33912;SDS011;20200;52.084;5.224;2022-08-11T00:15:18;5.5;;;3.6;;
33912;SDS011;20200;52.084;5.224;2022-08-11T00:17:08;6.5;;;3.2;;
33912;SDS011;20200;52.084;5.224;2022-08-11T00:18:59;5.11;;;3.0;;
33912;SDS011;20200;52.084;5.224;2022-08-11T00:20:48;9.9;;;3.1;;
33912;SDS011;20200;52.084;5.224;2022-08-11T00:22:36;9.0;;;3.1;;
33912;SDS011;20200;52.084;5.224;2022-08-11T00:24:31;10.0;;;3.3;;
33912;SDS011;20200;52.084;5.224;2022-08-11T00:28:24;6.1;;;3.2;;
33912;SDS011;20200;52.084;5.224;2022-08-11T00:30:13;7.2;;;3.1;;
33912;SDS011;20200;52.084;5.224;2022-08-11T00:32:02;6.5;;;2.9;;
33912;SDS011;20200;52.084;5.224;2022-08-11T00:33:51;9.31;;;3.2;;
33912;SDS011;20200;52.084;5.224;2022-08-11T00:35:38;5.4;;;2.9;;
33912;SDS011;20200;52.084;5.224;2022-08-11T00:37:24;7.9;;;3.1;;
33912;SDS011;20200;52.084;5.224;2022-08-11T00:39:13;8.1;;;3.1;;
33912;SDS011;20200;52.084;5.224;2022-08-11T00:43:16;4.8;;;2.7;;
33912;SDS011;20200;52.084;5.224;2022-08-11T00:45:25;5.0;;;2.7;;
33912;SDS011;20200;52.084;5.224;2022-08-11T00:49:23;5.11;;;2.9;;
33912;SDS011;20200;52.084;5.224;2022-08-11T00:51:29;5.2;;;3.1;;
33912;SDS011;20200;52.084;5.224;2022-08-11T00:53:38;8.4;;;3.0;;
33912;SDS011;20200;52.084;5.224;2022-08-11T00:59:22;5.0;;;2.9;;
33912;SDS011;20200;52.084;5.224;2022-08-11T01:02:14;6.0;;;3.2;;
33912;SDS011;20200;52.084;5.224;2022-08-11T01:06:50;5.0;;;3.0;;
33912;SDS011;20200;52.084;5.224;2022-08-11T01:09:13;4.8;;;3.2;;
33912;SDS011;20200;52.084;5.224;2022-08-11T01:11:52;6.1;;;3.3;;
33912;SDS011;20200;52.084;5.224;2022-08-11T01:20:36;4.91;;;2.8;;
33912;SDS011;20200;52.084;5.224;2022-08-11T01:21:35;6.3;;;2.9;;
33912;SDS011;20200;52.084;5.224;2022-08-11T01:22:32;6.3;;;2.9;;
33912;SDS011;20200;52.084;5.224;2022-08-11T01:23:33;6.1;;;3.1;;
33912;SDS011;20200;52.084;5.224;2022-08-11T01:25:10;6.1;;;3.1;;
33912;SDS011;20200;52.084;5.224;2022-08-11T01:25:33;7.7;;;3.5;;
33912;SDS011;20200;52.084;5.224;2022-08-11T01:27:31;6.5;;;3.1;;
33912;SDS011;20200;52.084;5.224;2022-08-11T01:29:05;6.5;;;3.1;;
33912;SDS011;20200;52.084;5.224;2022-08-11T01:29:32;7.1;;;3.2;;
33912;SDS011;20200;52.084;5.224;2022-08-11T01:31:33;6.2;;;3.2;;
33912;SDS011;20200;52.084;5.224;2022-08-11T01:33:01;6.2;;;3.2;;
33912;SDS011;20200;52.084;5.224;2022-08-11T01:33:37;6.2;;;3.2;;
33912;SDS011;20200;52.084;5.224;2022-08-11T01:35:29;9.5;;;3.2;;
33912;SDS011;20200;52.084;5.224;2022-08-11T01:39:41;5.6;;;3.1;;
33912;SDS011;20200;52.084;5.224;2022-08-11T01:40:36;4.2;;;2.8;;
33912;SDS011;20200;52.084;5.224;2022-08-11T01:41:28;4.2;;;2.8;;
33912;SDS011;20200;52.084;5.224;2022-08-11T01:45:00;7.6;;;2.8;;
33912;SDS011;20200;52.084;5.224;2022-08-11T01:47:55;5.3;;;3.1;;
33912;SDS011;20200;52.084;5.224;2022-08-11T01:49:54;7.6;;;3.1;;
33912;SDS011;20200;52.084;5.224;2022-08-11T01:51:59;6.5;;;3.2;;
33912;SDS011;20200;52.084;5.224;2022-08-11T01:53:56;5.9;;;3.2;;
33912;SDS011;20200;52.084;5.224;2022-08-11T01:55:51;9.4;;;3.6;;
33912;SDS011;20200;52.084;5.224;2022-08-11T01:57:46;8.31;;;3.5;;
33912;SDS011;20200;52.084;5.224;2022-08-11T01:59:48;6.2;;;3.5;;
33912;SDS011;20200;52.084;5.224;2022-08-11T02:01:55;6.2;;;3.4;;
33912;SDS011;20200;52.084;5.224;2022-08-11T02:04:02;6.2;;;3.5;;
33912;SDS011;20200;52.084;5.224;2022-08-11T02:06:54;5.11;;;3.5;;
33912;SDS011;20200;52.084;5.224;2022-08-11T02:08:51;6.0;;;3.5;;
33912;SDS011;20200;52.084;5.224;2022-08-11T02:11:51;7.1;;;3.8;;
33912;SDS011;20200;52.084;5.224;2022-08-11T02:13:56;5.4;;;3.9;;
33912;SDS011;20200;52.084;5.224;2022-08-11T02:15:53;8.71;;;3.8;;
33912;SDS011;20200;52.084;5.224;2022-08-11T02:17:59;5.4;;;3.7;;
33912;SDS011;20200;52.084;5.224;2022-08-11T02:24:03;6.7;;;3.4;;
33912;SDS011;20200;52.084;5.224;2022-08-11T02:26:01;7.6;;;3.6;;
33912;SDS011;20200;52.084;5.224;2022-08-11T02:27:54;5.9;;;4.0;;
33912;SDS011;20200;52.084;5.224;2022-08-11T02:34:58;6.8;;;3.8;;
33912;SDS011;20200;52.084;5.224;2022-08-11T02:37:00;7.7;;;4.2;;
33912;SDS011;20200;52.084;5.224;2022-08-11T02:38:59;8.31;;;3.8;;
33912;SDS011;20200;52.084;5.224;2022-08-11T02:40:56;5.7;;;3.9;;
33912;SDS011;20200;52.084;5.224;2022-08-11T02:42:49;7.0;;;4.0;;
33912;SDS011;20200;52.084;5.224;2022-08-11T02:44:50;9.31;;;3.9;;
33912;SDS011;20200;52.084;5.224;2022-08-11T02:46:56;8.4;;;4.1;;
33912;SDS011;20200;52.084;5.224;2022-08-11T02:49:57;5.7;;;4.1;;
33912;SDS011;20200;52.084;5.224;2022-08-11T02:52:01;5.7;;;4.1;;
33912;SDS011;20200;52.084;5.224;2022-08-11T02:54:06;6.3;;;4.61;;
33912;SDS011;20200;52.084;5.224;2022-08-11T02:55:59;8.5;;;4.91;;
33912;SDS011;20200;52.084;5.224;2022-08-11T02:57:53;5.11;;;4.3;;
33912;SDS011;20200;52.084;5.224;2022-08-11T02:59:50;7.6;;;4.41;;
33912;SDS011;20200;52.084;5.224;2022-08-11T03:01:43;7.2;;;4.5;;
33912;SDS011;20200;52.084;5.224;2022-08-11T03:03:43;8.81;;;5.11;;
33912;SDS011;20200;52.084;5.224;2022-08-11T03:05:43;7.9;;;4.61;;
33912;SDS011;20200;52.084;5.224;2022-08-11T03:08:04;8.6;;;4.91;;
33912;SDS011;20200;52.084;5.224;2022-08-11T03:10:09;7.5;;;4.7;;
33912;SDS011;20200;52.084;5.224;2022-08-11T03:18:14;7.8;;;5.11;;
33912;SDS011;20200;52.084;5.224;2022-08-11T03:20:18;9.31;;;4.91;;
33912;SDS011;20200;52.084;5.224;2022-08-11T03:22:22;8.0;;;5.0;;
33912;SDS011;20200;52.084;5.224;2022-08-11T03:26:12;9.21;;;5.5;;
33912;SDS011;20200;52.084;5.224;2022-08-11T03:28:20;8.71;;;4.8;;
33912;SDS011;20200;52.084;5.224;2022-08-11T03:30:14;11.1;;;5.2;;
33912;SDS011;20200;52.084;5.224;2022-08-11T03:32:06;8.0;;;4.61;;
33912;SDS011;20200;52.084;5.224;2022-08-11T03:34:05;8.0;;;4.7;;
33912;SDS011;20200;52.084;5.224;2022-08-11T03:36:00;7.0;;;5.2;;
33912;SDS011;20200;52.084;5.224;2022-08-11T03:38:06;7.5;;;5.2;;
33912;SDS011;20200;52.084;5.224;2022-08-11T03:39:58;8.71;;;5.4;;
33912;SDS011;20200;52.084;5.224;2022-08-11T03:42:00;8.9;;;5.5;;
33912;SDS011;20200;52.084;5.224;2022-08-11T03:44:28;7.8;;;5.3;;
33912;SDS011;20200;52.084;5.224;2022-08-11T03:46:33;13.8;;;5.6;;
33912;SDS011;20200;52.084;5.224;2022-08-11T03:48:42;7.9;;;5.0;;
33912;SDS011;20200;52.084;5.224;2022-08-11T03:51:12;8.1;;;5.6;;
33912;SDS011;20200;52.084;5.224;2022-08-11T03:53:07;9.0;;;5.11;;
33912;SDS011;20200;52.084;5.224;2022-08-11T03:55:07;9.4;;;5.2;;
33912;SDS011;20200;52.084;5.224;2022-08-11T03:57:10;10.21;;;5.3;;
33912;SDS011;20200;52.084;5.224;2022-08-11T04:02:04;8.4;;;5.4;;
33912;SDS011;20200;52.084;5.224;2022-08-11T04:04:15;10.1;;;5.5;;
33912;SDS011;20200;52.084;5.224;2022-08-11T04:07:41;8.81;;;5.2;;
33912;SDS011;20200;52.084;5.224;2022-08-11T04:10:58;9.71;;;6.5;;
33912;SDS011;20200;52.084;5.224;2022-08-11T04:16:41;7.7;;;5.5;;
33912;SDS011;20200;52.084;5.224;2022-08-11T04:19:54;9.31;;;5.9;;
33912;SDS011;20200;52.084;5.224;2022-08-11T04:21:35;10.9;;;6.0;;
33912;SDS011;20200;52.084;5.224;2022-08-11T04:22:45;10.9;;;6.0;;
33912;SDS011;20200;52.084;5.224;2022-08-11T04:24:27;10.9;;;6.0;;
33912;SDS011;20200;52.084;5.224;2022-08-11T04:26:51;9.9;;;5.9;;
33912;SDS011;20200;52.084;5.224;2022-08-11T04:29:09;8.31;;;6.0;;
33912;SDS011;20200;52.084;5.224;2022-08-11T04:31:09;7.8;;;5.7;;
33912;SDS011;20200;52.084;5.224;2022-08-11T04:33:40;8.6;;;6.3;;
33912;SDS011;20200;52.084;5.224;2022-08-11T04:35:51;8.6;;;6.2;;
33912;SDS011;20200;52.084;5.224;2022-08-11T04:37:55;8.5;;;5.9;;
33912;SDS011;20200;52.084;5.224;2022-08-11T04:40:36;10.6;;;6.1;;
33912;SDS011;20200;52.084;5.224;2022-08-11T04:45:39;8.81;;;6.7;;
33912;SDS011;20200;52.084;5.224;2022-08-11T05:02:04;10.3;;;6.9;;
33912;SDS011;20200;52.084;5.224;2022-08-11T05:09:25;8.71;;;6.3;;
33912;SDS011;20200;52.084;5.224;2022-08-11T05:12:19;9.0;;;6.3;;
33912;SDS011;20200;52.084;5.224;2022-08-11T05:34:56;15.3;;;7.6;;
33912;SDS011;20200;52.084;5.224;2022-08-11T05:37:19;11.8;;;6.9;;
33912;SDS011;20200;52.084;5.224;2022-08-11T05:57:30;8.4;;;5.8;;
33912;SDS011;20200;52.084;5.224;2022-08-11T05:59:19;8.9;;;6.2;;
33912;SDS011;20200;52.084;5.224;2022-08-11T06:03:00;9.0;;;5.7;;
33912;SDS011;20200;52.084;5.224;2022-08-11T06:04:52;9.4;;;5.7;;
33912;SDS011;20200;52.084;5.224;2022-08-11T06:06:49;10.7;;;6.1;;
33912;SDS011;20200;52.084;5.224;2022-08-11T06:08:43;9.5;;;5.8;;
33912;SDS011;20200;52.084;5.224;2022-08-11T06:10:33;8.9;;;5.7;;
33912;SDS011;20200;52.084;5.224;2022-08-11T06:12:22;12.2;;;5.9;;
33912;SDS011;20200;52.084;5.224;2022-08-11T06:14:11;10.9;;;5.8;;
33912;SDS011;20200;52.084;5.224;2022-08-11T06:15:59;9.4;;;5.4;;
33912;SDS011;20200;52.084;5.224;2022-08-11T06:19:35;9.81;;;5.6;;
33912;SDS011;20200;52.084;5.224;2022-08-11T06:21:27;10.5;;;5.3;;
33912;SDS011;20200;52.084;5.224;2022-08-11T06:23:17;13.0;;;5.6;;
33912;SDS011;20200;52.084;5.224;2022-08-11T06:25:05;15.0;;;7.9;;
33912;SDS011;20200;52.084;5.224;2022-08-11T06:26:54;15.9;;;9.9;;
33912;SDS011;20200;52.084;5.224;2022-08-11T06:28:44;11.8;;;6.1;;
33912;SDS011;20200;52.084;5.224;2022-08-11T06:30:33;8.5;;;5.2;;
33912;SDS011;20200;52.084;5.224;2022-08-11T06:34:13;7.1;;;4.41;;
33912;SDS011;20200;52.084;5.224;2022-08-11T06:36:19;8.1;;;4.8;;
33912;SDS011;20200;52.084;5.224;2022-08-11T06:38:23;8.2;;;4.8;;
33912;SDS011;20200;52.084;5.224;2022-08-11T06:40:25;9.81;;;4.7;;
33912;SDS011;20200;52.084;5.224;2022-08-11T06:42:27;9.21;;;4.61;;
33912;SDS011;20200;52.084;5.224;2022-08-11T06:44:23;9.6;;;4.8;;
33912;SDS011;20200;52.084;5.224;2022-08-11T06:46:15;8.6;;;4.3;;
33912;SDS011;20200;52.084;5.224;2022-08-11T06:48:14;10.5;;;4.5;;
33912;SDS011;20200;52.084;5.224;2022-08-11T06:53:04;9.0;;;4.2;;
33912;SDS011;20200;52.084;5.224;2022-08-11T06:55:04;7.7;;;3.7;;
33912;SDS011;20200;52.084;5.224;2022-08-11T07:00:29;7.4;;;4.41;;
33912;SDS011;20200;52.084;5.224;2022-08-11T07:02:21;8.2;;;4.0;;
33912;SDS011;20200;52.084;5.224;2022-08-11T07:04:14;6.1;;;4.0;;
33912;SDS011;20200;52.084;5.224;2022-08-11T07:06:16;6.1;;;4.1;;
33912;SDS011;20200;52.084;5.224;2022-08-11T07:16:03;6.4;;;3.5;;
33912;SDS011;20200;52.084;5.224;2022-08-11T07:28:57;8.0;;;3.9;;
33912;SDS011;20200;52.084;5.224;2022-08-11T07:30:46;6.2;;;3.7;;
33912;SDS011;20200;52.084;5.224;2022-08-11T07:32:36;10.1;;;4.0;;
33912;SDS011;20200;52.084;5.224;2022-08-11T07:34:36;10.1;;;4.0;;
33912;SDS011;20200;52.084;5.224;2022-08-11T07:36:30;11.6;;;8.9;;
33912;SDS011;20200;52.084;5.224;2022-08-11T07:38:19;10.21;;;4.0;;
33912;SDS011;20200;52.084;5.224;2022-08-11T07:40:12;7.0;;;3.4;;
33912;SDS011;20200;52.084;5.224;2022-08-11T07:42:04;7.3;;;2.9;;
33912;SDS011;20200;52.084;5.224;2022-08-11T07:43:54;6.7;;;3.0;;
33912;SDS011;20200;52.084;5.224;2022-08-11T07:52:53;10.5;;;3.6;;
33912;SDS011;20200;52.084;5.224;2022-08-11T07:54:40;7.8;;;3.4;;
33912;SDS011;20200;52.084;5.224;2022-08-11T07:56:27;10.5;;;3.1;;
33912;SDS011;20200;52.084;5.224;2022-08-11T08:19:35;7.3;;;3.4;;
33912;SDS011;20200;52.084;5.224;2022-08-11T08:21:23;6.9;;;3.2;;
33912;SDS011;20200;52.084;5.224;2022-08-11T08:24:56;7.6;;;3.1;;
33912;SDS011;20200;52.084;5.224;2022-08-11T08:26:59;7.5;;;2.9;;
33912;SDS011;20200;52.084;5.224;2022-08-11T08:28:46;8.81;;;3.0;;
33912;SDS011;20200;52.084;5.224;2022-08-11T08:30:49;8.0;;;3.3;;
33912;SDS011;20200;52.084;5.224;2022-08-11T08:32:37;8.2;;;3.6;;
33912;SDS011;20200;52.084;5.224;2022-08-11T08:34:26;8.71;;;3.1;;
33912;SDS011;20200;52.084;5.224;2022-08-11T08:36:15;10.5;;;3.4;;
33912;SDS011;20200;52.084;5.224;2022-08-11T08:39:49;6.8;;;3.2;;
33912;SDS011;20200;52.084;5.224;2022-08-11T08:41:37;9.0;;;3.4;;
33912;SDS011;20200;52.084;5.224;2022-08-11T08:43:25;6.9;;;3.0;;
33912;SDS011;20200;52.084;5.224;2022-08-11T08:45:15;11.1;;;3.0;;
33912;SDS011;20200;52.084;5.224;2022-08-11T08:47:05;11.8;;;3.2;;
33912;SDS011;20200;52.084;5.224;2022-08-11T08:48:56;9.0;;;3.2;;
33912;SDS011;20200;52.084;5.224;2022-08-11T08:51:52;12.9;;;6.1;;
33912;SDS011;20200;52.084;5.224;2022-08-11T08:53:45;11.2;;;4.5;;
33912;SDS011;20200;52.084;5.224;2022-08-11T08:55:40;9.9;;;3.6;;
33912;SDS011;20200;52.084;5.224;2022-08-11T08:57:31;10.7;;;3.5;;
33912;SDS011;20200;52.084;5.224;2022-08-11T08:59:21;10.0;;;3.3;;
33912;SDS011;20200;52.084;5.224;2022-08-11T09:01:11;7.8;;;3.1;;
33912;SDS011;20200;52.084;5.224;2022-08-11T09:04:49;6.6;;;3.2;;
33912;SDS011;20200;52.084;5.224;2022-08-11T09:06:39;7.8;;;3.2;;
33912;SDS011;20200;52.084;5.224;2022-08-11T09:08:29;8.31;;;3.1;;
33912;SDS011;20200;52.084;5.224;2022-08-11T09:10:18;11.3;;;3.3;;
33912;SDS011;20200;52.084;5.224;2022-08-11T09:12:07;8.71;;;3.0;;
33912;SDS011;20200;52.084;5.224;2022-08-11T09:13:56;6.3;;;3.3;;
33912;SDS011;20200;52.084;5.224;2022-08-11T09:15:44;11.6;;;3.2;;
33912;SDS011;20200;52.084;5.224;2022-08-11T09:19:22;13.8;;;3.4;;
33912;SDS011;20200;52.084;5.224;2022-08-11T09:21:14;9.71;;;3.3;;
33912;SDS011;20200;52.084;5.224;2022-08-11T09:27:11;10.8;;;3.4;;
33912;SDS011;20200;52.084;5.224;2022-08-11T09:29:00;12.2;;;3.2;;
33912;SDS011;20200;52.084;5.224;2022-08-11T09:30:50;9.31;;;3.3;;
33912;SDS011;20200;52.084;5.224;2022-08-11T09:32:40;9.5;;;4.3;;
33912;SDS011;20200;52.084;5.224;2022-08-11T09:40:32;8.5;;;3.1;;
33912;SDS011;20200;52.084;5.224;2022-08-11T09:42:19;8.6;;;3.2;;
33912;SDS011;20200;52.084;5.224;2022-08-11T09:45:12;11.3;;;2.9;;
33912;SDS011;20200;52.084;5.224;2022-08-11T09:46:59;7.9;;;3.0;;
33912;SDS011;20200;52.084;5.224;2022-08-11T09:48:48;14.9;;;5.2;;
33912;SDS011;20200;52.084;5.224;2022-08-11T09:50:38;13.8;;;3.7;;
33912;SDS011;20200;52.084;5.224;2022-08-11T09:52:25;10.3;;;2.9;;
33912;SDS011;20200;52.084;5.224;2022-08-11T09:54:16;6.9;;;2.9;;
33912;SDS011;20200;52.084;5.224;2022-08-11T09:58:12;9.0;;;2.8;;
33912;SDS011;20200;52.084;5.224;2022-08-11T10:00:00;9.81;;;3.1;;
33912;SDS011;20200;52.084;5.224;2022-08-11T10:01:57;8.71;;;2.7;;
33912;SDS011;20200;52.084;5.224;2022-08-11T10:08:36;8.1;;;2.9;;
33912;SDS011;20200;52.084;5.224;2022-08-11T10:10:25;10.1;;;2.6;;
33912;SDS011;20200;52.084;5.224;2022-08-11T10:12:16;8.81;;;2.6;;
33912;SDS011;20200;52.084;5.224;2022-08-11T10:17:17;10.3;;;3.2;;
33912;SDS011;20200;52.084;5.224;2022-08-11T10:19:06;8.81;;;2.9;;
33912;SDS011;20200;52.084;5.224;2022-08-11T10:20:56;8.4;;;2.6;;
33912;SDS011;20200;52.084;5.224;2022-08-11T10:26:54;9.81;;;4.2;;
33912;SDS011;20200;52.084;5.224;2022-08-11T10:35:38;5.4;;;2.6;;
33912;SDS011;20200;52.084;5.224;2022-08-11T10:37:33;11.7;;;3.2;;
33912;SDS011;20200;52.084;5.224;2022-08-11T10:44:15;10.3;;;2.31;;
33912;SDS011;20200;52.084;5.224;2022-08-11T10:49:06;7.0;;;2.6;;
33912;SDS011;20200;52.084;5.224;2022-08-11T11:00:06;5.8;;;2.9;;
33912;SDS011;20200;52.084;5.224;2022-08-11T11:01:57;8.71;;;2.7;;
33912;SDS011;20200;52.084;5.224;2022-08-11T11:03:45;10.4;;;2.8;;
33912;SDS011;20200;52.084;5.224;2022-08-11T11:05:32;7.5;;;2.7;;
33912;SDS011;20200;52.084;5.224;2022-08-11T11:07:26;9.9;;;3.1;;
33912;SDS011;20200;52.084;5.224;2022-08-11T11:09:24;11.9;;;3.5;;
33912;SDS011;20200;52.084;5.224;2022-08-11T11:11:15;9.21;;;3.0;;
33912;SDS011;20200;52.084;5.224;2022-08-11T11:19:50;10.4;;;2.9;;
33912;SDS011;20200;52.084;5.224;2022-08-11T11:21:44;8.9;;;2.9;;
33912;SDS011;20200;52.084;5.224;2022-08-11T11:23:37;8.71;;;3.1;;
33912;SDS011;20200;52.084;5.224;2022-08-11T11:25:31;11.0;;;3.0;;
33912;SDS011;20200;52.084;5.224;2022-08-11T11:29:35;12.1;;;3.1;;
33912;SDS011;20200;52.084;5.224;2022-08-11T11:31:47;10.4;;;2.8;;
33912;SDS011;20200;52.084;5.224;2022-08-11T11:36:03;6.4;;;2.5;;
33912;SDS011;20200;52.084;5.224;2022-08-11T11:39:51;9.4;;;2.7;;
33912;SDS011;20200;52.084;5.224;2022-08-11T11:43:27;10.6;;;3.3;;
33912;SDS011;20200;52.084;5.224;2022-08-11T11:45:14;10.7;;;3.1;;
33912;SDS011;20200;52.084;5.224;2022-08-11T11:47:02;9.0;;;2.7;;
33912;SDS011;20200;52.084;5.224;2022-08-11T11:48:52;6.5;;;2.6;;
33912;SDS011;20200;52.084;5.224;2022-08-11T11:50:40;7.1;;;2.5;;
33912;SDS011;20200;52.084;5.224;2022-08-11T11:54:14;4.5;;;2.6;;
33912;SDS011;20200;52.084;5.224;2022-08-11T11:56:06;8.5;;;2.6;;
33912;SDS011;20200;52.084;5.224;2022-08-11T12:01:27;8.81;;;3.1;;
33912;SDS011;20200;52.084;5.224;2022-08-11T12:03:16;8.81;;;2.6;;
33912;SDS011;20200;52.084;5.224;2022-08-11T12:08:08;9.21;;;2.7;;
33912;SDS011;20200;52.084;5.224;2022-08-11T12:09:58;9.0;;;4.8;;
33912;SDS011;20200;52.084;5.224;2022-08-11T12:14:48;8.2;;;2.5;;
33912;SDS011;20200;52.084;5.224;2022-08-11T12:16:36;7.6;;;2.31;;
33912;SDS011;20200;52.084;5.224;2022-08-11T12:18:25;9.81;;;2.21;;
33912;SDS011;20200;52.084;5.224;2022-08-11T12:20:15;7.9;;;2.5;;
33912;SDS011;20200;52.084;5.224;2022-08-11T12:28:09;5.4;;;3.0;;
33912;SDS011;20200;52.084;5.224;2022-08-11T12:29:56;6.7;;;2.5;;
33912;SDS011;20200;52.084;5.224;2022-08-11T12:31:46;8.4;;;2.6;;
33912;SDS011;20200;52.084;5.224;2022-08-11T12:33:34;8.1;;;2.7;;
33912;SDS011;20200;52.084;5.224;2022-08-11T12:35:20;6.9;;;2.5;;
33912;SDS011;20200;52.084;5.224;2022-08-11T12:37:12;11.1;;;3.1;;
33912;SDS011;20200;52.084;5.224;2022-08-11T12:39:02;4.41;;;2.31;;
33912;SDS011;20200;52.084;5.224;2022-08-11T12:45:41;9.6;;;2.4;;
33912;SDS011;20200;52.084;5.224;2022-08-11T12:51:59;7.5;;;2.1;;
33912;SDS011;20200;52.084;5.224;2022-08-11T12:54:25;6.8;;;2.4;;
33912;SDS011;20200;52.084;5.224;2022-08-11T13:05:22;7.9;;;2.4;;
33912;SDS011;20200;52.084;5.224;2022-08-11T13:07:10;9.1;;;2.7;;
33912;SDS011;20200;52.084;5.224;2022-08-11T13:08:58;6.0;;;2.5;;
33912;SDS011;20200;52.084;5.224;2022-08-11T13:13:47;6.5;;;2.4;;
33912;SDS011;20200;52.084;5.224;2022-08-11T13:15:35;4.8;;;2.21;;
33912;SDS011;20200;52.084;5.224;2022-08-11T13:17:23;8.81;;;2.5;;
33912;SDS011;20200;52.084;5.224;2022-08-11T13:19:11;5.11;;;2.21;;
33912;SDS011;20200;52.084;5.224;2022-08-11T13:20:57;7.4;;;2.4;;
33912;SDS011;20200;52.084;5.224;2022-08-11T13:22:45;9.31;;;2.6;;
33912;SDS011;20200;52.084;5.224;2022-08-11T13:26:24;8.5;;;2.6;;
33912;SDS011;20200;52.084;5.224;2022-08-11T13:28:11;7.1;;;2.5;;
33912;SDS011;20200;52.084;5.224;2022-08-11T13:31:10;6.5;;;2.4;;
33912;SDS011;20200;52.084;5.224;2022-08-11T13:32:56;6.3;;;2.7;;
33912;SDS011;20200;52.084;5.224;2022-08-11T13:34:45;7.2;;;2.6;;
33912;SDS011;20200;52.084;5.224;2022-08-11T13:36:32;7.9;;;2.7;;
33912;SDS011;20200;52.084;5.224;2022-08-11T13:38:21;5.5;;;2.31;;
33912;SDS011;20200;52.084;5.224;2022-08-11T13:40:10;9.31;;;4.0;;
33912;SDS011;20200;52.084;5.224;2022-08-11T13:41:59;6.9;;;2.8;;
33912;SDS011;20200;52.084;5.224;2022-08-11T13:43:47;9.81;;;2.6;;
33912;SDS011;20200;52.084;5.224;2022-08-11T13:47:23;6.0;;;2.21;;
33912;SDS011;20200;52.084;5.224;2022-08-11T13:49:10;6.5;;;2.4;;
33912;SDS011;20200;52.084;5.224;2022-08-11T13:51:34;11.0;;;2.31;;
33912;SDS011;20200;52.084;5.224;2022-08-11T13:53:25;8.9;;;2.9;;
33912;SDS011;20200;52.084;5.224;2022-08-11T13:55:20;5.9;;;2.21;;
33912;SDS011;20200;52.084;5.224;2022-08-11T13:57:08;8.2;;;2.31;;
33912;SDS011;20200;52.084;5.224;2022-08-11T13:58:59;11.0;;;2.7;;
33912;SDS011;20200;52.084;5.224;2022-08-11T14:00:48;5.4;;;2.7;;
33912;SDS011;20200;52.084;5.224;2022-08-11T14:02:38;5.2;;;2.21;;
33912;SDS011;20200;52.084;5.224;2022-08-11T14:04:29;7.1;;;2.5;;
33912;SDS011;20200;52.084;5.224;2022-08-11T14:08:31;9.31;;;2.4;;
33912;SDS011;20200;52.084;5.224;2022-08-11T14:10:23;9.6;;;2.7;;
33912;SDS011;20200;52.084;5.224;2022-08-11T14:15:20;8.81;;;2.4;;
33912;SDS011;20200;52.084;5.224;2022-08-11T14:17:08;4.8;;;2.5;;
33912;SDS011;20200;52.084;5.224;2022-08-11T14:23:54;7.2;;;2.5;;
33912;SDS011;20200;52.084;5.224;2022-08-11T14:26:22;8.9;;;2.7;;
33912;SDS011;20200;52.084;5.224;2022-08-11T14:28:08;6.2;;;2.31;;
33912;SDS011;20200;52.084;5.224;2022-08-11T14:29:56;6.6;;;3.0;;
33912;SDS011;20200;52.084;5.224;2022-08-11T14:31:45;5.9;;;2.31;;
33912;SDS011;20200;52.084;5.224;2022-08-11T14:35:23;8.4;;;2.5;;
33912;SDS011;20200;52.084;5.224;2022-08-11T14:37:12;7.5;;;2.1;;
33912;SDS011;20200;52.084;5.224;2022-08-11T14:39:05;6.4;;;2.1;;
33912;SDS011;20200;52.084;5.224;2022-08-11T14:47:38;4.61;;;2.4;;
33912;SDS011;20200;52.084;5.224;2022-08-11T14:49:27;6.4;;;2.21;;
33912;SDS011;20200;52.084;5.224;2022-08-11T14:51:14;6.4;;;2.31;;
33912;SDS011;20200;52.084;5.224;2022-08-11T14:53:04;9.71;;;2.31;;
33912;SDS011;20200;52.084;5.224;2022-08-11T14:58:38;5.0;;;2.1;;
33912;SDS011;20200;52.084;5.224;2022-08-11T15:00:27;6.1;;;2.21;;
33912;SDS011;20200;52.084;5.224;2022-08-11T15:03:19;6.4;;;2.4;;
33912;SDS011;20200;52.084;5.224;2022-08-11T15:05:09;7.7;;;2.31;;
33912;SDS011;20200;52.084;5.224;2022-08-11T15:08:59;6.9;;;2.21;;
33912;SDS011;20200;52.084;5.224;2022-08-11T15:10:46;4.91;;;2.6;;
33912;SDS011;20200;52.084;5.224;2022-08-11T15:12:35;9.6;;;2.5;;
33912;SDS011;20200;52.084;5.224;2022-08-11T15:18:11;7.3;;;2.6;;
33912;SDS011;20200;52.084;5.224;2022-08-11T15:24:24;4.2;;;2.21;;
33912;SDS011;20200;52.084;5.224;2022-08-11T15:26:12;5.3;;;2.4;;
33912;SDS011;20200;52.084;5.224;2022-08-11T15:38:35;5.4;;;2.21;;
33912;SDS011;20200;52.084;5.224;2022-08-11T15:46:34;7.3;;;2.1;;
33912;SDS011;20200;52.084;5.224;2022-08-11T15:48:32;5.8;;;2.1;;
33912;SDS011;20200;52.084;5.224;2022-08-11T15:50:29;3.9;;;2.1;;
33912;SDS011;20200;52.084;5.224;2022-08-11T15:52:20;5.5;;;2.5;;
33912;SDS011;20200;52.084;5.224;2022-08-11T15:54:12;6.5;;;2.4;;
33912;SDS011;20200;52.084;5.224;2022-08-11T15:56:00;6.6;;;2.31;;
33912;SDS011;20200;52.084;5.224;2022-08-11T16:04:34;7.6;;;2.21;;
33912;SDS011;20200;52.084;5.224;2022-08-11T16:06:22;8.4;;;2.21;;
33912;SDS011;20200;52.084;5.224;2022-08-11T16:08:12;6.0;;;2.21;;
33912;SDS011;20200;52.084;5.224;2022-08-11T16:10:04;7.8;;;2.31;;
33912;SDS011;20200;52.084;5.224;2022-08-11T16:16:48;6.0;;;2.1;;
33912;SDS011;20200;52.084;5.224;2022-08-11T16:18:40;7.1;;;2.0;;
33912;SDS011;20200;52.084;5.224;2022-08-11T16:20:30;5.5;;;2.31;;
33912;SDS011;20200;52.084;5.224;2022-08-11T16:24:13;5.2;;;2.21;;
33912;SDS011;20200;52.084;5.224;2022-08-11T16:26:02;7.1;;;2.21;;
33912;SDS011;20200;52.084;5.224;2022-08-11T16:27:50;3.7;;;2.1;;
33912;SDS011;20200;52.084;5.224;2022-08-11T16:29:46;7.2;;;2.1;;
33912;SDS011;20200;52.084;5.224;2022-08-11T16:31:36;5.0;;;2.4;;
33912;SDS011;20200;52.084;5.224;2022-08-11T16:33:27;4.5;;;2.1;;
33912;SDS011;20200;52.084;5.224;2022-08-11T16:38:34;3.4;;;2.31;;
33912;SDS011;20200;52.084;5.224;2022-08-11T16:40:25;5.6;;;2.21;;
33912;SDS011;20200;52.084;5.224;2022-08-11T16:49:06;5.2;;;2.0;;
33912;SDS011;20200;52.084;5.224;2022-08-11T16:51:10;3.3;;;2.1;;
33912;SDS011;20200;52.084;5.224;2022-08-11T16:52:57;6.1;;;2.21;;
33912;SDS011;20200;52.084;5.224;2022-08-11T16:54:46;6.6;;;2.0;;
33912;SDS011;20200;52.084;5.224;2022-08-11T16:56:34;7.9;;;2.1;;
33912;SDS011;20200;52.084;5.224;2022-08-11T16:59:31;4.3;;;2.0;;
33912;SDS011;20200;52.084;5.224;2022-08-11T17:01:21;9.9;;;2.21;;
33912;SDS011;20200;52.084;5.224;2022-08-11T17:13:08;8.4;;;2.5;;
33912;SDS011;20200;52.084;5.224;2022-08-11T17:14:57;7.4;;;4.61;;
33912;SDS011;20200;52.084;5.224;2022-08-11T17:18:41;7.4;;;3.7;;
33912;SDS011;20200;52.084;5.224;2022-08-11T17:20:33;5.7;;;2.31;;
33912;SDS011;20200;52.084;5.224;2022-08-11T17:25:24;7.3;;;2.31;;
33912;SDS011;20200;52.084;5.224;2022-08-11T17:35:46;4.8;;;2.1;;
33912;SDS011;20200;52.084;5.224;2022-08-11T17:37:34;5.7;;;2.4;;
33912;SDS011;20200;52.084;5.224;2022-08-11T17:39:24;9.6;;;2.4;;
33912;SDS011;20200;52.084;5.224;2022-08-11T17:48:27;4.0;;;2.21;;
33912;SDS011;20200;52.084;5.224;2022-08-11T17:51:05;5.7;;;1.9;;
33912;SDS011;20200;52.084;5.224;2022-08-11T18:00:06;4.2;;;2.1;;
33912;SDS011;20200;52.084;5.224;2022-08-11T18:01:55;4.3;;;2.31;;
33912;SDS011;20200;52.084;5.224;2022-08-11T18:03:46;5.8;;;2.21;;
33912;SDS011;20200;52.084;5.224;2022-08-11T18:05:35;5.0;;;1.9;;
